Saint Regis, MT

7:13 AM MST en Diciembre 04, 2016 (GMT -0700)
Mullan Pass | | Change Station
Aviso en curso: Winter Storm Warning

Alt 6073 ft 47.45 °N, 115.67 °W | Updated 11 minutes ago

Snow
Nieve
24 ° F
Sensación térmica 15 ° F
N
8
Viento Variable Viento desde SO
Gusts 20 mph

Hoy
Alta -- | Baja -- ° F
--% Posibilidad de precipitaciones
Ayer
Alta -- | Baja -- ° F
Precip. -- pul
Presión 29.65 pul
Visibilidad 0.5 Millas
Nubes
Vientos helados 15 ° F
Punto de rocío 23 ° F
Humedad 96%
Precipitaciones 0.22 pul
Espesor de la nieve No disponible.
8:13 AM 4:52 PM
Creciente, 23% visible
SPECI KMLP 041402Z AUTO 23007G17KT 140V310 1/2SM SN FZFG M04/M05 A2965 RMK AO2 SNB1354 P0007 T10441050 $
Presión 29.65 pul
Visibilidad 0.5 Millas
Nubes
Vientos helados 15 ° F
Punto de rocío 23 ° F
Humedad 96%
Precipitaciones 0.22 pul
Espesor de la nieve No disponible.
8:13 AM 4:52 PM
Creciente, 23% visible
SPECI KMLP 041402Z AUTO 23007G17KT 140V310 1/2SM SN FZFG M04/M05 A2965 RMK AO2 SNB1354 P0007 T10441050 $

10-Day Weather Forecast

Almanac

Astronomía

Dec. 04, 2016 Salida Puesta
Hora real
Crepúsculo civil
Crepúsculo náutico
Crepúsculo astronómico
Luna
Horas de luz
Horas de luz
Tomorrow will be .
, % of the Moon is Illuminated

Extremos de hoy

Máximos del estado Bajos del estado

Community

WunderPhotos

Upload Photos

1,955,598 ¡fotos cargadas!

WunderBlog® & News

Nearby

Calidad del aire

  Calidad del aire Índice AQ Contaminante
Not available.

Grosos de nieve

Estación Profundido Altura

Actividad de terremotos

Ciudad Distance Mag. Tiempo y dato
Magnitud mínima muestra es 2,5.

Temperaturas de aguas costeras

Lugar Temperatura

Stations

Estaciones meteorológicas cercanas

Ubicación de la estación Temp. Vientos helados Punto de rocío Humedad Viento Precip. Alt Actualizado Tipo
                   

Watches & Warnings

Winter Storm Warning
Issued: 8:42 PM MST Dec. 3, 2016 – National Weather Service

... Winter Storm Warning remains in effect from midnight tonight
to 11 am MST Monday...

The National Weather Service in Missoula has issued a Winter
Storm Warning for heavy snow and blowing snow... which is in
effect from midnight tonight to 11 am MST Monday. The Winter
Storm Watch is no longer in effect.

* Impacts/timing: snow will return tonight and increase in
intensity through Sunday morning. Snow will become moderate to
heavy over Lookout Pass during Sunday. By Sunday evening the
combination of accumulating snow, wind, and quickly dropping
temperatures will create hazardous travel conditions that may
extend into Monday morning.

* Snow accumulations by Sunday night: Saint Regis to Missoula 2
to 5 inches, Evaro hill 4 to 7 inches, and lookout to Haugan
10 to 14 inches.

* Winds: gusty northwest winds of 25 to 35 miles per hour with
the cold front Sunday evening.